sensor_id;sensor_type;location;lat;lon;timestamp;pressure;altitude;pressure_sealevel;temperature;humidity
52535;BME280;38443;53.164;5.802;2023-05-20T00:01:25;102878.72;;;9.69;100.00
52535;BME280;38443;53.164;5.802;2023-05-20T00:03:50;102868.00;;;9.68;100.00
52535;BME280;38443;53.164;5.802;2023-05-20T00:06:16;102874.25;;;9.67;100.00
52535;BME280;38443;53.164;5.802;2023-05-20T00:08:41;102874.25;;;9.67;100.00
52535;BME280;38443;53.164;5.802;2023-05-20T00:11:06;102868.88;;;9.65;100.00
52535;BME280;38443;53.164;5.802;2023-05-20T00:13:32;102875.13;;;9.64;100.00
52535;BME280;38443;53.164;5.802;2023-05-20T00:16:00;102863.50;;;9.64;100.00
52535;BME280;38443;53.164;5.802;2023-05-20T00:18:25;102856.41;;;9.64;100.00
52535;BME280;38443;53.164;5.802;2023-05-20T00:20:50;102871.53;;;9.64;100.00
52535;BME280;38443;53.164;5.802;2023-05-20T00:23:17;102859.97;;;9.65;100.00
52535;BME280;38443;53.164;5.802;2023-05-20T00:25:42;102854.59;;;9.62;100.00
52535;BME280;38443;53.164;5.802;2023-05-20T00:28:07;102862.59;;;9.60;100.00
52535;BME280;38443;53.164;5.802;2023-05-20T00:30:33;102862.66;;;9.65;100.00
52535;BME280;38443;53.164;5.802;2023-05-20T00:32:58;102859.94;;;9.63;100.00
52535;BME280;38443;53.164;5.802;2023-05-20T00:35:23;102862.63;;;9.63;100.00
52535;BME280;38443;53.164;5.802;2023-05-20T00:37:49;102867.97;;;9.63;100.00
52535;BME280;38443;53.164;5.802;2023-05-20T00:40:14;102861.75;;;9.64;100.00
52535;BME280;38443;53.164;5.802;2023-05-20T00:42:40;102854.59;;;9.62;100.00
52535;BME280;38443;53.164;5.802;2023-05-20T00:45:05;102857.25;;;9.62;100.00
52535;BME280;38443;53.164;5.802;2023-05-20T00:47:32;102857.25;;;9.58;100.00
52535;BME280;38443;53.164;5.802;2023-05-20T00:49:59;102857.25;;;9.58;100.00
52535;BME280;38443;53.164;5.802;2023-05-20T00:52:26;102858.13;;;9.59;100.00
52535;BME280;38443;53.164;5.802;2023-05-20T00:54:51;102851.00;;;9.58;100.00
52535;BME280;38443;53.164;5.802;2023-05-20T00:57:17;102852.78;;;9.59;100.00
52535;BME280;38443;53.164;5.802;2023-05-20T00:59:43;102849.22;;;9.57;100.00
52535;BME280;38443;53.164;5.802;2023-05-20T01:02:08;102853.69;;;9.59;100.00
52535;BME280;38443;53.164;5.802;2023-05-20T01:04:34;102851.00;;;9.56;100.00
52535;BME280;38443;53.164;5.802;2023-05-20T01:07:02;102853.69;;;9.56;100.00
52535;BME280;38443;53.164;5.802;2023-05-20T01:09:29;102850.97;;;9.55;100.00
52535;BME280;38443;53.164;5.802;2023-05-20T01:14:49;102842.94;;;9.52;100.00
52535;BME280;38443;53.164;5.802;2023-05-20T01:17:15;102854.47;;;9.48;100.00
52535;BME280;38443;53.164;5.802;2023-05-20T01:19:46;102854.47;;;9.45;100.00
52535;BME280;38443;53.164;5.802;2023-05-20T01:22:13;102851.75;;;9.42;100.00
52535;BME280;38443;53.164;5.802;2023-05-20T01:24:43;102857.09;;;9.40;100.00
52535;BME280;38443;53.164;5.802;2023-05-20T01:27:10;102855.28;;;9.37;100.00
52535;BME280;38443;53.164;5.802;2023-05-20T01:29:39;102855.28;;;9.36;100.00
52535;BME280;38443;53.164;5.802;2023-05-20T01:32:10;102850.84;;;9.36;100.00
52535;BME280;38443;53.164;5.802;2023-05-20T01:34:36;102848.16;;;9.35;100.00
52535;BME280;38443;53.164;5.802;2023-05-20T01:37:03;102850.81;;;9.33;100.00
52535;BME280;38443;53.164;5.802;2023-05-20T01:39:33;102848.13;;;9.33;100.00
52535;BME280;38443;53.164;5.802;2023-05-20T01:42:01;102849.03;;;9.34;100.00
52535;BME280;38443;53.164;5.802;2023-05-20T01:44:27;102843.69;;;9.35;100.00
52535;BME280;38443;53.164;5.802;2023-05-20T01:46:53;102853.53;;;9.36;100.00
52535;BME280;38443;53.164;5.802;2023-05-20T01:49:18;102854.38;;;9.34;100.00
52535;BME280;38443;53.164;5.802;2023-05-20T01:51:44;102849.91;;;9.31;100.00
52535;BME280;38443;53.164;5.802;2023-05-20T01:54:09;102841.91;;;9.33;100.00
52535;BME280;38443;53.164;5.802;2023-05-20T01:56:34;102851.66;;;9.29;100.00
52535;BME280;38443;53.164;5.802;2023-05-20T01:58:59;102845.47;;;9.33;100.00
52535;BME280;38443;53.164;5.802;2023-05-20T02:01:25;102847.22;;;9.30;100.00
52535;BME280;38443;53.164;5.802;2023-05-20T02:03:50;102848.13;;;9.32;100.00
52535;BME280;38443;53.164;5.802;2023-05-20T02:06:15;102846.31;;;9.28;100.00
52535;BME280;38443;53.164;5.802;2023-05-20T02:08:41;102847.22;;;9.28;100.00
52535;BME280;38443;53.164;5.802;2023-05-20T02:11:06;102840.97;;;9.26;100.00
52535;BME280;38443;53.164;5.802;2023-05-20T02:13:31;102841.81;;;9.22;100.00
52535;BME280;38443;53.164;5.802;2023-05-20T02:15:56;102839.16;;;9.25;100.00
52535;BME280;38443;53.164;5.802;2023-05-20T02:18:22;102831.13;;;9.24;100.00
52535;BME280;38443;53.164;5.802;2023-05-20T02:20:47;102833.81;;;9.22;100.00
52535;BME280;38443;53.164;5.802;2023-05-20T02:23:12;102840.00;;;9.19;100.00
52535;BME280;38443;53.164;5.802;2023-05-20T02:25:37;102843.59;;;9.20;100.00
52535;BME280;38443;53.164;5.802;2023-05-20T02:28:03;102834.63;;;9.18;100.00
52535;BME280;38443;53.164;5.802;2023-05-20T02:30:37;102837.34;;;9.19;100.00
52535;BME280;38443;53.164;5.802;2023-05-20T02:33:02;102834.66;;;9.19;100.00
52535;BME280;38443;53.164;5.802;2023-05-20T02:35:28;102828.44;;;9.19;100.00
52535;BME280;38443;53.164;5.802;2023-05-20T02:37:53;102832.88;;;9.18;100.00
52535;BME280;38443;53.164;5.802;2023-05-20T02:40:19;102832.88;;;9.17;100.00
52535;BME280;38443;53.164;5.802;2023-05-20T02:42:44;102831.09;;;9.19;100.00
52535;BME280;38443;53.164;5.802;2023-05-20T02:45:10;102835.53;;;9.17;100.00
52535;BME280;38443;53.164;5.802;2023-05-20T02:47:36;102833.78;;;9.19;100.00
52535;BME280;38443;53.164;5.802;2023-05-20T02:50:01;102823.91;;;9.13;100.00
52535;BME280;38443;53.164;5.802;2023-05-20T02:52:26;102825.72;;;9.16;100.00
52535;BME280;38443;53.164;5.802;2023-05-20T02:54:52;102828.38;;;9.13;100.00
52535;BME280;38443;53.164;5.802;2023-05-20T02:57:17;102825.72;;;9.14;100.00
52535;BME280;38443;53.164;5.802;2023-05-20T02:59:43;102833.69;;;9.11;100.00
52535;BME280;38443;53.164;5.802;2023-05-20T03:02:08;102826.63;;;9.15;100.00
52535;BME280;38443;53.164;5.802;2023-05-20T03:04:33;102822.13;;;9.14;100.00
52535;BME280;38443;53.164;5.802;2023-05-20T03:07:05;102827.50;;;9.12;100.00
52535;BME280;38443;53.164;5.802;2023-05-20T03:09:32;102835.47;;;9.11;100.00
52535;BME280;38443;53.164;5.802;2023-05-20T03:11:57;102827.44;;;9.08;100.00
52535;BME280;38443;53.164;5.802;2023-05-20T03:14:22;102829.19;;;9.04;100.00
52535;BME280;38443;53.164;5.802;2023-05-20T03:16:47;102835.41;;;9.03;100.00
52535;BME280;38443;53.164;5.802;2023-05-20T03:19:13;102834.53;;;9.03;100.00
52535;BME280;38443;53.164;5.802;2023-05-20T03:21:38;102831.81;;;8.98;100.00
52535;BME280;38443;53.164;5.802;2023-05-20T03:24:03;102825.53;;;8.94;100.00
52535;BME280;38443;53.164;5.802;2023-05-20T03:26:29;102823.75;;;8.93;100.00
52535;BME280;38443;53.164;5.802;2023-05-20T03:28:54;102828.19;;;8.93;100.00
52535;BME280;38443;53.164;5.802;2023-05-20T03:31:19;102836.22;;;8.94;100.00
52535;BME280;38443;53.164;5.802;2023-05-20T03:33:45;102829.97;;;8.94;100.00
52535;BME280;38443;53.164;5.802;2023-05-20T03:36:10;102831.78;;;8.95;100.00
52535;BME280;38443;53.164;5.802;2023-05-20T03:38:35;102824.63;;;8.94;100.00
52535;BME280;38443;53.164;5.802;2023-05-20T03:41:01;102825.56;;;8.97;100.00
52535;BME280;38443;53.164;5.802;2023-05-20T03:43:26;102827.34;;;8.97;100.00
52535;BME280;38443;53.164;5.802;2023-05-20T03:45:52;102820.22;;;8.97;100.00
52535;BME280;38443;53.164;5.802;2023-05-20T03:48:18;102817.53;;;8.97;100.00
52535;BME280;38443;53.164;5.802;2023-05-20T03:50:44;102816.69;;;8.98;100.00
52535;BME280;38443;53.164;5.802;2023-05-20T03:53:10;102818.44;;;8.99;100.00
52535;BME280;38443;53.164;5.802;2023-05-20T03:55:35;102819.38;;;9.00;100.00
52535;BME280;38443;53.164;5.802;2023-05-20T03:58:00;102806.94;;;9.02;100.00
52535;BME280;38443;53.164;5.802;2023-05-20T04:00:26;102813.19;;;9.07;100.00
52535;BME280;38443;53.164;5.802;2023-05-20T04:02:51;102814.06;;;9.08;100.00
52535;BME280;38443;53.164;5.802;2023-05-20T04:05:17;102825.66;;;9.10;100.00
52535;BME280;38443;53.164;5.802;2023-05-20T04:07:42;102819.44;;;9.09;100.00
52535;BME280;38443;53.164;5.802;2023-05-20T04:10:08;102816.78;;;9.11;100.00
52535;BME280;38443;53.164;5.802;2023-05-20T04:12:34;102814.13;;;9.11;100.00
52535;BME280;38443;53.164;5.802;2023-05-20T04:15:01;102813.22;;;9.12;100.00
52535;BME280;38443;53.164;5.802;2023-05-20T04:17:27;102816.78;;;9.11;100.00
52535;BME280;38443;53.164;5.802;2023-05-20T04:19:54;102811.47;;;9.12;100.00
52535;BME280;38443;53.164;5.802;2023-05-20T04:22:20;102814.13;;;9.12;100.00
52535;BME280;38443;53.164;5.802;2023-05-20T04:24:45;102816.78;;;9.11;100.00
52535;BME280;38443;53.164;5.802;2023-05-20T04:27:10;102808.78;;;9.12;100.00
52535;BME280;38443;53.164;5.802;2023-05-20T04:29:37;102823.94;;;9.15;100.00
52535;BME280;38443;53.164;5.802;2023-05-20T04:32:02;102816.81;;;9.15;100.00
52535;BME280;38443;53.164;5.802;2023-05-20T04:34:28;102823.13;;;9.22;100.00
52535;BME280;38443;53.164;5.802;2023-05-20T04:36:54;102827.56;;;9.23;100.00
52535;BME280;38443;53.164;5.802;2023-05-20T04:39:19;102822.25;;;9.25;100.00
52535;BME280;38443;53.164;5.802;2023-05-20T04:41:44;102814.25;;;9.26;100.00
52535;BME280;38443;53.164;5.802;2023-05-20T04:44:12;102816.91;;;9.26;100.00
52535;BME280;38443;53.164;5.802;2023-05-20T04:46:37;102821.38;;;9.27;100.00
52535;BME280;38443;53.164;5.802;2023-05-20T04:49:04;102820.50;;;9.30;100.00
52535;BME280;38443;53.164;5.802;2023-05-20T04:51:29;102817.81;;;9.30;100.00
52535;BME280;38443;53.164;5.802;2023-05-20T04:53:54;102818.75;;;9.33;100.00
52535;BME280;38443;53.164;5.802;2023-05-20T04:56:20;102822.31;;;9.32;100.00
52535;BME280;38443;53.164;5.802;2023-05-20T04:58:45;102822.31;;;9.35;100.00
52535;BME280;38443;53.164;5.802;2023-05-20T05:01:10;102825.91;;;9.37;100.00
52535;BME280;38443;53.164;5.802;2023-05-20T05:03:36;102820.59;;;9.41;100.00
52535;BME280;38443;53.164;5.802;2023-05-20T05:06:01;102821.47;;;9.41;100.00
52535;BME280;38443;53.164;5.802;2023-05-20T05:08:26;102818.81;;;9.46;100.00
52535;BME280;38443;53.164;5.802;2023-05-20T05:10:51;102824.16;;;9.46;100.00
52535;BME280;38443;53.164;5.802;2023-05-20T05:13:17;102821.53;;;9.47;100.00
52535;BME280;38443;53.164;5.802;2023-05-20T05:15:43;102823.31;;;9.47;100.00
52535;BME280;38443;53.164;5.802;2023-05-20T05:18:08;102822.41;;;9.48;100.00
52535;BME280;38443;53.164;5.802;2023-05-20T05:20:33;102828.66;;;9.47;100.00
52535;BME280;38443;53.164;5.802;2023-05-20T05:22:59;102825.97;;;9.47;100.00
52535;BME280;38443;53.164;5.802;2023-05-20T05:25:24;102825.06;;;9.48;100.00
52535;BME280;38443;53.164;5.802;2023-05-20T05:27:50;102826.00;;;9.48;100.00
52535;BME280;38443;53.164;5.802;2023-05-20T05:30:15;102818.88;;;9.53;100.00
52535;BME280;38443;53.164;5.802;2023-05-20T05:32:40;102826.06;;;9.59;100.00
52535;BME280;38443;53.164;5.802;2023-05-20T05:35:06;102834.13;;;9.70;100.00
52535;BME280;38443;53.164;5.802;2023-05-20T05:37:31;102827.91;;;9.74;100.00
52535;BME280;38443;53.164;5.802;2023-05-20T05:39:57;102825.31;;;9.82;100.00
52535;BME280;38443;53.164;5.802;2023-05-20T05:42:22;102828.94;;;9.91;100.00
52535;BME280;38443;53.164;5.802;2023-05-20T05:44:47;102832.56;;;10.07;100.00
52535;BME280;38443;53.164;5.802;2023-05-20T05:47:13;102823.72;;;10.19;100.00
52535;BME280;38443;53.164;5.802;2023-05-20T05:49:38;102818.44;;;10.37;100.00
52535;BME280;38443;53.164;5.802;2023-05-20T05:52:03;102814.06;;;10.50;100.00
52535;BME280;38443;53.164;5.802;2023-05-20T05:54:29;102820.31;;;10.66;100.00
52535;BME280;38443;53.164;5.802;2023-05-20T05:56:54;102819.44;;;10.78;100.00
52535;BME280;38443;53.164;5.802;2023-05-20T05:59:20;102822.16;;;10.92;100.00
52535;BME280;38443;53.164;5.802;2023-05-20T06:01:46;102819.50;;;10.96;100.00
52535;BME280;38443;53.164;5.802;2023-05-20T06:04:11;102809.66;;;11.03;100.00
52535;BME280;38443;53.164;5.802;2023-05-20T06:06:37;102815.03;;;11.05;100.00
52535;BME280;38443;53.164;5.802;2023-05-20T06:09:02;102808.75;;;11.04;100.00
52535;BME280;38443;53.164;5.802;2023-05-20T06:11:28;102807.88;;;11.05;100.00
52535;BME280;38443;53.164;5.802;2023-05-20T06:13:54;102811.44;;;11.10;100.00
52535;BME280;38443;53.164;5.802;2023-05-20T06:16:19;102811.47;;;11.16;100.00
52535;BME280;38443;53.164;5.802;2023-05-20T06:18:45;102809.63;;;11.32;100.00
52535;BME280;38443;53.164;5.802;2023-05-20T06:21:10;102807.84;;;11.44;100.00
52535;BME280;38443;53.164;5.802;2023-05-20T06:23:36;102811.44;;;11.49;100.00
52535;BME280;38443;53.164;5.802;2023-05-20T06:26:01;102805.13;;;11.54;100.00
52535;BME280;38443;53.164;5.802;2023-05-20T06:28:28;102808.66;;;11.78;100.00
52535;BME280;38443;53.164;5.802;2023-05-20T06:30:54;102800.22;;;12.73;100.00
52535;BME280;38443;53.164;5.802;2023-05-20T06:33:22;102799.38;;;13.72;100.00
52535;BME280;38443;53.164;5.802;2023-05-20T06:35:50;102791.22;;;14.48;100.00
52535;BME280;38443;53.164;5.802;2023-05-20T06:38:16;102796.09;;;14.85;100.00
52535;BME280;38443;53.164;5.802;2023-05-20T06:40:41;102785.59;;;15.21;100.00
52535;BME280;38443;53.164;5.802;2023-05-20T06:43:06;102780.28;;;15.66;100.00
52535;BME280;38443;53.164;5.802;2023-05-20T06:45:31;102787.19;;;15.82;100.00
52535;BME280;38443;53.164;5.802;2023-05-20T06:47:57;102781.88;;;16.21;100.00
52535;BME280;38443;53.164;5.802;2023-05-20T06:50:22;102772.88;;;16.60;100.00
52535;BME280;38443;53.164;5.802;2023-05-20T06:52:49;102775.25;;;16.73;100.00
52535;BME280;38443;53.164;5.802;2023-05-20T06:55:15;102775.88;;;16.88;100.00
52535;BME280;38443;53.164;5.802;2023-05-20T06:57:40;102765.03;;;16.88;100.00
52535;BME280;38443;53.164;5.802;2023-05-20T07:00:06;102767.81;;;17.21;100.00
52535;BME280;38443;53.164;5.802;2023-05-20T07:02:32;102762.09;;;17.31;100.00
52535;BME280;38443;53.164;5.802;2023-05-20T07:04:57;102757.56;;;17.65;100.00
52535;BME280;38443;53.164;5.802;2023-05-20T07:07:23;102752.69;;;17.78;100.00
52535;BME280;38443;53.164;5.802;2023-05-20T07:09:48;102752.50;;;17.52;100.00
52535;BME280;38443;53.164;5.802;2023-05-20T07:12:14;102742.78;;;17.45;98.58
52535;BME280;38443;53.164;5.802;2023-05-20T07:14:39;102755.66;;;17.35;94.63
52535;BME280;38443;53.164;5.802;2023-05-20T07:17:04;102758.50;;;17.31;90.68
52535;BME280;38443;53.164;5.802;2023-05-20T07:19:30;102745.41;;;17.48;91.60
52535;BME280;38443;53.164;5.802;2023-05-20T07:21:55;102764.84;;;17.63;91.90
52535;BME280;38443;53.164;5.802;2023-05-20T07:24:21;102756.88;;;17.58;88.21
52535;BME280;38443;53.164;5.802;2023-05-20T07:26:46;102754.69;;;17.71;88.00
52535;BME280;38443;53.164;5.802;2023-05-20T07:29:12;102754.34;;;17.85;87.67
52535;BME280;38443;53.164;5.802;2023-05-20T07:31:37;102747.88;;;18.20;89.05
52535;BME280;38443;53.164;5.802;2023-05-20T07:34:02;102746.94;;;18.20;85.36
52535;BME280;38443;53.164;5.802;2023-05-20T07:36:28;102758.22;;;18.06;86.16
52535;BME280;38443;53.164;5.802;2023-05-20T07:38:54;102757.91;;;18.17;85.06
52535;BME280;38443;53.164;5.802;2023-05-20T07:41:19;102744.81;;;18.31;84.70
52535;BME280;38443;53.164;5.802;2023-05-20T07:43:45;102747.25;;;17.78;78.05
52535;BME280;38443;53.164;5.802;2023-05-20T07:46:10;102753.56;;;17.47;78.05
52535;BME280;38443;53.164;5.802;2023-05-20T07:48:36;102744.25;;;17.57;81.94
52535;BME280;38443;53.164;5.802;2023-05-20T07:51:01;102736.06;;;17.60;81.57
52535;BME280;38443;53.164;5.802;2023-05-20T07:53:27;102748.03;;;17.84;84.18
52535;BME280;38443;53.164;5.802;2023-05-20T07:55:52;102722.06;;;18.07;80.66
52535;BME280;38443;53.164;5.802;2023-05-20T07:58:17;102735.56;;;18.38;86.02
52535;BME280;38443;53.164;5.802;2023-05-20T08:00:43;102734.75;;;18.63;86.76
52535;BME280;38443;53.164;5.802;2023-05-20T08:03:09;102733.19;;;18.26;86.43
52535;BME280;38443;53.164;5.802;2023-05-20T08:05:38;102735.19;;;17.91;84.64
52535;BME280;38443;53.164;5.802;2023-05-20T08:08:04;102731.66;;;17.87;87.96
52535;BME280;38443;53.164;5.802;2023-05-20T08:10:29;102737.69;;;17.97;87.71
52535;BME280;38443;53.164;5.802;2023-05-20T08:12:55;102740.97;;;17.77;86.83
52535;BME280;38443;53.164;5.802;2023-05-20T08:15:22;102735.31;;;18.16;86.76
52535;BME280;38443;53.164;5.802;2023-05-20T08:17:47;102735.56;;;18.38;86.25
52535;BME280;38443;53.164;5.802;2023-05-20T08:20:13;102732.94;;;18.05;76.84
52535;BME280;38443;53.164;5.802;2023-05-20T08:22:38;102735.50;;;18.10;79.44
52535;BME280;38443;53.164;5.802;2023-05-20T08:25:07;102736.88;;;17.95;84.11
52535;BME280;38443;53.164;5.802;2023-05-20T08:27:32;102739.38;;;18.01;84.63
52535;BME280;38443;53.164;5.802;2023-05-20T08:29:58;102736.09;;;18.20;85.72
52535;BME280;38443;53.164;5.802;2023-05-20T08:32:23;102725.91;;;18.28;82.13
52535;BME280;38443;53.164;5.802;2023-05-20T08:34:48;102733.75;;;18.09;80.61
52535;BME280;38443;53.164;5.802;2023-05-20T08:37:14;102721.00;;;18.12;79.32
52535;BME280;38443;53.164;5.802;2023-05-20T08:39:40;102729.31;;;18.06;78.15
52535;BME280;38443;53.164;5.802;2023-05-20T08:42:05;102720.28;;;18.06;76.74
52535;BME280;38443;53.164;5.802;2023-05-20T08:44:33;102710.53;;;18.00;76.67
52535;BME280;38443;53.164;5.802;2023-05-20T08:46:58;102722.56;;;17.90;81.69
52535;BME280;38443;53.164;5.802;2023-05-20T08:49:25;102718.16;;;17.86;82.92
52535;BME280;38443;53.164;5.802;2023-05-20T08:51:50;102708.69;;;18.01;84.94
52535;BME280;38443;53.164;5.802;2023-05-20T08:54:16;102704.09;;;18.04;83.21
52535;BME280;38443;53.164;5.802;2023-05-20T08:56:42;102709.38;;;18.37;83.53
52535;BME280;38443;53.164;5.802;2023-05-20T08:59:08;102704.56;;;18.45;80.84
52535;BME280;38443;53.164;5.802;2023-05-20T09:01:38;102689.22;;;18.16;76.80
52535;BME280;38443;53.164;5.802;2023-05-20T09:04:05;102704.50;;;18.20;81.65
52535;BME280;38443;53.164;5.802;2023-05-20T09:06:41;102701.66;;;18.23;79.36
52535;BME280;38443;53.164;5.802;2023-05-20T09:09:06;102701.66;;;18.23;79.97
52535;BME280;38443;53.164;5.802;2023-05-20T09:11:32;102698.53;;;18.37;80.07
52535;BME280;38443;53.164;5.802;2023-05-20T09:13:57;102696.72;;;18.36;81.03
52535;BME280;38443;53.164;5.802;2023-05-20T09:16:23;102698.56;;;18.36;83.04
52535;BME280;38443;53.164;5.802;2023-05-20T09:18:54;102694.81;;;18.40;80.40
52535;BME280;38443;53.164;5.802;2023-05-20T09:21:27;102686.88;;;18.05;79.20
52535;BME280;38443;53.164;5.802;2023-05-20T09:23:53;102688.06;;;17.97;82.56
52535;BME280;38443;53.164;5.802;2023-05-20T09:26:22;102683.50;;;17.97;82.01
52535;BME280;38443;53.164;5.802;2023-05-20T09:28:48;102676.28;;;17.66;80.15
52535;BME280;38443;53.164;5.802;2023-05-20T09:31:13;102679.00;;;17.66;83.51
52535;BME280;38443;53.164;5.802;2023-05-20T09:33:39;102686.78;;;17.77;85.76
52535;BME280;38443;53.164;5.802;2023-05-20T09:36:08;102685.91;;;17.77;83.79
52535;BME280;38443;53.164;5.802;2023-05-20T09:38:38;102678.81;;;17.41;84.59
52535;BME280;38443;53.164;5.802;2023-05-20T09:41:10;102671.44;;;17.15;90.17
52535;BME280;38443;53.164;5.802;2023-05-20T09:43:38;102673.69;;;17.32;91.61
52535;BME280;38443;53.164;5.802;2023-05-20T09:46:04;102666.47;;;17.31;90.59
52535;BME280;38443;53.164;5.802;2023-05-20T09:48:30;102668.75;;;17.13;89.40
52535;BME280;38443;53.164;5.802;2023-05-20T09:50:56;102665.31;;;17.08;92.95
52535;BME280;38443;53.164;5.802;2023-05-20T09:53:25;102668.13;;;17.04;95.83
52535;BME280;38443;53.164;5.802;2023-05-20T09:55:52;102659.38;;;17.27;92.04
52535;BME280;38443;53.164;5.802;2023-05-20T09:58:19;102649.63;;;17.20;95.24
52535;BME280;38443;53.164;5.802;2023-05-20T10:00:45;102646.06;;;17.19;94.80
52535;BME280;38443;53.164;5.802;2023-05-20T10:03:11;102646.53;;;17.33;94.95
52535;BME280;38443;53.164;5.802;2023-05-20T10:05:44;102648.16;;;17.41;95.35
52535;BME280;38443;53.164;5.802;2023-05-20T10:13:49;102648.19;;;17.08;100.00
52535;BME280;38443;53.164;5.802;2023-05-20T10:21:22;102627.16;;;17.18;100.00
52535;BME280;38443;53.164;5.802;2023-05-20T10:23:49;102631.16;;;17.35;100.00
52535;BME280;38443;53.164;5.802;2023-05-20T10:26:14;102636.69;;;17.31;100.00
52535;BME280;38443;53.164;5.802;2023-05-20T10:28:40;102630.44;;;17.29;100.00
52535;BME280;38443;53.164;5.802;2023-05-20T10:31:22;102641.44;;;17.23;100.00
52535;BME280;38443;53.164;5.802;2023-05-20T10:33:51;102632.28;;;17.28;100.00
52535;BME280;38443;53.164;5.802;2023-05-20T10:36:25;102620.44;;;17.32;100.00
52535;BME280;38443;53.164;5.802;2023-05-20T10:38:55;102622.81;;;17.43;100.00
52535;BME280;38443;53.164;5.802;2023-05-20T10:41:23;102609.38;;;17.40;100.00
52535;BME280;38443;53.164;5.802;2023-05-20T10:44:01;102611.06;;;17.44;100.00
52535;BME280;38443;53.164;5.802;2023-05-20T10:46:27;102627.56;;;17.35;100.00
52535;BME280;38443;53.164;5.802;2023-05-20T10:48:53;102613.28;;;17.30;100.00
52535;BME280;38443;53.164;5.802;2023-05-20T10:51:19;102620.25;;;17.39;100.00
52535;BME280;38443;53.164;5.802;2023-05-20T10:53:45;102605.66;;;17.44;100.00
52535;BME280;38443;53.164;5.802;2023-05-20T10:56:19;102600.94;;;17.51;100.00
52535;BME280;38443;53.164;5.802;2023-05-20T10:58:46;102606.50;;;17.46;100.00
52535;BME280;38443;53.164;5.802;2023-05-20T11:01:12;102613.59;;;17.50;100.00
52535;BME280;38443;53.164;5.802;2023-05-20T11:03:39;102614.28;;;17.57;100.00
52535;BME280;38443;53.164;5.802;2023-05-20T11:06:15;102609.75;;;17.58;100.00
52535;BME280;38443;53.164;5.802;2023-05-20T11:08:41;102596.28;;;17.56;100.00
52535;BME280;38443;53.164;5.802;2023-05-20T11:11:07;102601.00;;;17.48;100.00
52535;BME280;38443;53.164;5.802;2023-05-20T11:13:32;102595.66;;;17.46;100.00
52535;BME280;38443;53.164;5.802;2023-05-20T11:16:00;102596.63;;;17.44;100.00
52535;BME280;38443;53.164;5.802;2023-05-20T11:18:28;102587.66;;;17.42;100.00
52535;BME280;38443;53.164;5.802;2023-05-20T11:21:00;102589.28;;;17.47;100.00
52535;BME280;38443;53.164;5.802;2023-05-20T11:23:27;102588.91;;;17.60;100.00
52535;BME280;38443;53.164;5.802;2023-05-20T11:25:56;102582.81;;;17.53;100.00
52535;BME280;38443;53.164;5.802;2023-05-20T11:28:25;102577.56;;;17.77;100.00
52535;BME280;38443;53.164;5.802;2023-05-20T11:30:51;102578.41;;;17.79;100.00
52535;BME280;38443;53.164;5.802;2023-05-20T11:33:17;102573.75;;;17.84;100.00
52535;BME280;38443;53.164;5.802;2023-05-20T11:35:48;102569.66;;;17.99;100.00
52535;BME280;38443;53.164;5.802;2023-05-20T11:38:13;102566.34;;;17.90;100.00
52535;BME280;38443;53.164;5.802;2023-05-20T11:40:44;102579.41;;;17.76;100.00
52535;BME280;38443;53.164;5.802;2023-05-20T11:43:13;102585.75;;;17.75;100.00
52535;BME280;38443;53.164;5.802;2023-05-20T11:45:43;102580.59;;;17.66;100.00
52535;BME280;38443;53.164;5.802;2023-05-20T11:48:09;102573.16;;;17.74;100.00
52535;BME280;38443;53.164;5.802;2023-05-20T11:50:37;102562.47;;;17.98;100.00
52535;BME280;38443;53.164;5.802;2023-05-20T11:53:06;102566.13;;;18.23;100.00
52535;BME280;38443;53.164;5.802;2023-05-20T11:55:32;102567.34;;;18.41;100.00
52535;BME280;38443;53.164;5.802;2023-05-20T11:57:59;102561.47;;;18.53;100.00
52535;BME280;38443;53.164;5.802;2023-05-20T12:00:25;102548.53;;;18.62;100.00
52535;BME280;38443;53.164;5.802;2023-05-20T12:02:50;102549.25;;;18.67;100.00
52535;BME280;38443;53.164;5.802;2023-05-20T12:05:16;102559.00;;;18.72;100.00
52535;BME280;38443;53.164;5.802;2023-05-20T12:07:42;102545.44;;;18.72;100.00
52535;BME280;38443;53.164;5.802;2023-05-20T12:10:08;102538.84;;;18.54;100.00
52535;BME280;38443;53.164;5.802;2023-05-20T12:12:34;102535.28;;;18.27;100.00
52535;BME280;38443;53.164;5.802;2023-05-20T12:15:01;102543.66;;;18.20;100.00
52535;BME280;38443;53.164;5.802;2023-05-20T12:17:27;102537.63;;;18.38;100.00
52535;BME280;38443;53.164;5.802;2023-05-20T12:19:52;102535.00;;;18.35;100.00
52535;BME280;38443;53.164;5.802;2023-05-20T12:22:17;102544.28;;;18.28;100.00
52535;BME280;38443;53.164;5.802;2023-05-20T12:24:43;102541.38;;;18.07;100.00
52535;BME280;38443;53.164;5.802;2023-05-20T12:27:08;102542.31;;;18.06;100.00
52535;BME280;38443;53.164;5.802;2023-05-20T12:29:34;102542.94;;;18.14;100.00
52535;BME280;38443;53.164;5.802;2023-05-20T12:31:59;102540.75;;;18.26;100.00
52535;BME280;38443;53.164;5.802;2023-05-20T12:34:25;102540.13;;;18.18;100.00
52535;BME280;38443;53.164;5.802;2023-05-20T12:36:50;102548.22;;;18.19;100.00
52535;BME280;38443;53.164;5.802;2023-05-20T12:39:17;102539.69;;;18.30;100.00
52535;BME280;38443;53.164;5.802;2023-05-20T12:41:43;102532.72;;;18.23;100.00
52535;BME280;38443;53.164;5.802;2023-05-20T12:44:09;102530.66;;;18.04;100.00
52535;BME280;38443;53.164;5.802;2023-05-20T12:46:35;102515.94;;;17.85;100.00
52535;BME280;38443;53.164;5.802;2023-05-20T12:49:01;102526.94;;;17.79;100.00
52535;BME280;38443;53.164;5.802;2023-05-20T12:51:26;102533.16;;;17.82;100.00
52535;BME280;38443;53.164;5.802;2023-05-20T12:53:54;102522.81;;;17.95;100.00
52535;BME280;38443;53.164;5.802;2023-05-20T12:56:20;102525.69;;;17.90;100.00